Погода Паулу-Рамусна неделю

Мараньян, Бразилия

19 - 25 июня
  • 19июня
    Сегодня
    +23°
    +34°
    Пасмурно, сплошная облачность
    ВремяПогодаТемператураВлажностьДавлениеВетер, м/сВероятность осадков
    00:00Практически безоблачно+26°C82 %749 мм1.8 м/с5 %
    03:00Практически безоблачно+26°C83 %749 мм1.0 м/с5 %
    06:00Ясно и безоблачно+25°C86 %749 мм1.1 м/с5 %
    09:00Ясно и безоблачно+30°C63 %751 мм2.9 м/с5 %
    12:00Ясно и безоблачно+32°C42 %750 мм4.7 м/с3 %
    15:00Пасмурно, сплошная облачность+34°C37 %748 мм3.9 м/с5 %
    18:00Облачно с прояснениями+31°C58 %748 мм1.2 м/с5 %
    21:00Ясно и безоблачно+29°C60 %750 мм2.8 м/с5 %
  • 20июня
    Четверг
    +24°
    +34°
    Небольшая облачность
    ВремяПогодаТемператураВлажностьДавлениеВетер, м/сВероятность осадков
    00:00Ясно и безоблачно+27°C71 %750 мм1.4 м/с5 %
    03:00Ясно и безоблачно+24°C81 %748 мм1.3 м/с1 %
    06:00Ясно и безоблачно+24°C82 %749 мм1.5 м/с2 %
    09:00Ясно и безоблачно+30°C54 %750 мм3.5 м/с3 %
    12:00Небольшая облачность+32°C43 %750 мм5.6 м/с10 %
    15:00Небольшая облачность+34°C38 %748 мм4.3 м/с5 %
    18:00Ясно и безоблачно+31°C55 %748 мм2.0 м/с5 %
    21:00Небольшая облачность+29°C64 %749 мм2.2 м/с5 %
  • 21июня
    Пятница
    +24°
    +34°
    Облачно с прояснениями
    ВремяПогодаТемператураВлажностьДавлениеВетер, м/сВероятность осадков
    00:00Небольшая облачность+27°C70 %749 мм1.8 м/с5 %
    03:00Облачно с прояснениями+26°C77 %748 мм1.8 м/с2 %
    06:00Практически безоблачно+25°C81 %748 мм1.5 м/с8 %
    09:00Практически безоблачно+29°C61 %750 мм3.1 м/с23 %
    12:00Небольшая облачность+32°C45 %750 мм5.5 м/с31 %
    15:00Облачно с прояснениями+33°C40 %748 мм4.2 м/с4 %
    18:00Ясно и безоблачно+31°C50 %748 мм2.7 м/с3 %
    21:00Ясно и безоблачно+30°C59 %749 мм2.0 м/с5 %
  • 22июня
    Суббота
    +23°
    +34°
    Ясно и безоблачно
    ВремяПогодаТемператураВлажностьДавлениеВетер, м/сВероятность осадков
    00:00Ясно и безоблачно+27°C74 %749 мм1.5 м/с3 %
    03:00Практически безоблачно+25°C79 %749 мм1.5 м/с8 %
    06:00Небольшая облачность+24°C81 %750 мм2.0 м/с8 %
    09:00Ясно и безоблачно+30°C58 %751 мм3.2 м/с5 %
    12:00Ясно и безоблачно+32°C43 %750 мм5.2 м/с6 %
    15:00Ясно и безоблачно+34°C38 %748 мм4.0 м/с8 %
    18:00Ясно и безоблачно+31°C52 %748 мм1.8 м/с4 %
    21:00Ясно и безоблачно+30°C63 %750 мм2.0 м/с4 %
  • 23июня
    Воскресенье
    +25°
    +34°
    Облачно с прояснениями
    ВремяПогодаТемператураВлажностьДавлениеВетер, м/сВероятность осадков
    00:00Ясно и безоблачно+26°C74 %749 мм1.5 м/с7 %
    03:00Ясно и безоблачно+25°C82 %749 мм0.3 м/с15 %
    06:00Ясно и безоблачно+24°C84 %749 мм1.1 м/с18 %
    09:00Ясно и безоблачно+30°C62 %751 мм2.0 м/с27 %
    12:00Небольшая облачность+32°C41 %750 мм5.0 м/с36 %
    15:00Облачно с прояснениями+33°C38 %748 мм4.4 м/с24 %
    18:00Облачно с прояснениями+32°C48 %748 мм1.9 м/с15 %
    21:00Небольшая облачность+30°C58 %749 мм2.3 м/с4 %
Мы используем cookies
Соглашаюсь